メインページ
METAR-TAF:

METAR-TAF

空港 :

ザンジャーン, イラン

緯度: 36-41N, 経度: 048-29E, 海抜: 1663m

現時点の気象観測

当レポートは3時間15分前の15:00(UTC)に作成
東/北東の風 6kt
気温 1°C
湿度 75%
気圧 1025 hPa
視程10km以上
高度2000ftの雲はほとんどない
高度3500ftの雲は散在している

METAR: OITZ 171500Z 07006KT 9999 FEW020 SCT035 01/M03 Q1025

時間: 21:45 (18:15 UTC)


TAF: 見つかりません

4,000以上の空港の気象観測と天気予報(METAR報とTAF報)

利用可能な観測所は地図上に黄色い丸と赤い丸で示す。

丸の上にカーソルを重ねると観測所名を参照できる。

次にクリックすると気象観測と天気予報を参照できる。

マップの切り替え:黒色「×」印の緑ボタンをクリックして拡大、「-」印の緑ボタンをクリックして縮小、緑色の三角印をクリックして隣りの地図に切り替え


METAR-TAF: